Terminal Aerodrome Forecast
Issued by NWS Wilmington, NC

Current Version | Previous Version | Graphics & Text | Print | Product List | Glossary Off
Versions: 1 2 3 4 5 6 7 8 9 10 11 12 13 14 15 16 17 18 19 20

000
FTUS42 KILM 261720
TAFMYR
TAF
KMYR 261720Z 2618/2718 09010KT P6SM SCT020
     FM262100 11005KT P6SM FEW250
     FM270900 07005KT 4SM HZ BR SCT250=

USA.gov is the U.S. government's official web portal to all federal, state and local government web resources and services.